sensor_id;sensor_type;location;lat;lon;timestamp;pressure;altitude;pressure_sealevel;temperature;humidity
19286;BME280;9776;50.798;6.430;2022-08-24T00:00:28;100321.75;;;23.03;51.87
19286;BME280;9776;50.798;6.430;2022-08-24T00:02:55;100323.81;;;22.89;52.16
19286;BME280;9776;50.798;6.430;2022-08-24T00:05:21;100326.38;;;22.84;52.12
19286;BME280;9776;50.798;6.430;2022-08-24T00:07:49;100330.34;;;22.82;52.30
19286;BME280;9776;50.798;6.430;2022-08-24T00:10:17;100329.97;;;22.78;52.21
19286;BME280;9776;50.798;6.430;2022-08-24T00:12:46;100335.44;;;22.72;52.44
19286;BME280;9776;50.798;6.430;2022-08-24T00:15:14;100332.16;;;22.70;52.56
19286;BME280;9776;50.798;6.430;2022-08-24T00:17:42;100329.34;;;22.65;52.55
19286;BME280;9776;50.798;6.430;2022-08-24T00:20:10;100336.59;;;22.64;52.48
19286;BME280;9776;50.798;6.430;2022-08-24T00:22:37;100332.09;;;22.58;52.77
19286;BME280;9776;50.798;6.430;2022-08-24T00:25:07;100328.94;;;22.61;52.76
19286;BME280;9776;50.798;6.430;2022-08-24T00:27:34;100326.50;;;22.59;52.71
19286;BME280;9776;50.798;6.430;2022-08-24T00:30:04;100331.72;;;22.54;52.96
19286;BME280;9776;50.798;6.430;2022-08-24T00:32:30;100338.94;;;22.54;52.96
19286;BME280;9776;50.798;6.430;2022-08-24T00:34:57;100339.56;;;22.56;53.01
19286;BME280;9776;50.798;6.430;2022-08-24T00:37:24;100339.66;;;22.49;53.00
19286;BME280;9776;50.798;6.430;2022-08-24T00:39:52;100344.88;;;22.44;53.32
19286;BME280;9776;50.798;6.430;2022-08-24T00:42:20;100346.75;;;22.44;53.46
19286;BME280;9776;50.798;6.430;2022-08-24T00:44:46;100341.00;;;22.40;53.50
19286;BME280;9776;50.798;6.430;2022-08-24T00:47:17;100339.59;;;22.38;53.53
19286;BME280;9776;50.798;6.430;2022-08-24T00:49:51;100337.34;;;22.35;53.69
19286;BME280;9776;50.798;6.430;2022-08-24T00:52:22;100337.78;;;22.32;53.80
19286;BME280;9776;50.798;6.430;2022-08-24T00:54:52;100336.81;;;22.26;54.29
19286;BME280;9776;50.798;6.430;2022-08-24T00:57:24;100329.44;;;22.22;54.34
19286;BME280;9776;50.798;6.430;2022-08-24T00:59:58;100333.78;;;22.04;55.05
19286;BME280;9776;50.798;6.430;2022-08-24T01:02:31;100332.63;;;21.94;55.53
19286;BME280;9776;50.798;6.430;2022-08-24T01:05:01;100323.31;;;21.96;55.54
19286;BME280;9776;50.798;6.430;2022-08-24T01:07:29;100322.28;;;21.97;55.59
19286;BME280;9776;50.798;6.430;2022-08-24T01:09:58;100325.19;;;21.96;55.45
19286;BME280;9776;50.798;6.430;2022-08-24T01:12:27;100329.50;;;21.97;55.37
19286;BME280;9776;50.798;6.430;2022-08-24T01:14:56;100332.19;;;21.97;55.40
19286;BME280;9776;50.798;6.430;2022-08-24T01:17:25;100327.50;;;21.92;55.54
19286;BME280;9776;50.798;6.430;2022-08-24T01:20:11;100330.41;;;21.91;55.53
19286;BME280;9776;50.798;6.430;2022-08-24T01:22:49;100324.84;;;21.86;55.59
19286;BME280;9776;50.798;6.430;2022-08-24T01:25:21;100327.97;;;21.83;55.84
19286;BME280;9776;50.798;6.430;2022-08-24T01:27:49;100328.38;;;21.86;55.48
19286;BME280;9776;50.798;6.430;2022-08-24T01:30:16;100328.81;;;21.83;55.83
19286;BME280;9776;50.798;6.430;2022-08-24T01:32:51;100324.31;;;21.77;55.90
19286;BME280;9776;50.798;6.430;2022-08-24T01:35:19;100324.38;;;21.71;55.95
19286;BME280;9776;50.798;6.430;2022-08-24T01:37:46;100328.66;;;21.78;55.79
19286;BME280;9776;50.798;6.430;2022-08-24T01:40:13;100331.09;;;21.80;55.88
19286;BME280;9776;50.798;6.430;2022-08-24T01:42:47;100336.09;;;21.76;56.12
19286;BME280;9776;50.798;6.430;2022-08-24T01:45:14;100341.38;;;21.65;56.69
19286;BME280;9776;50.798;6.430;2022-08-24T01:47:41;100339.75;;;21.64;56.86
19286;BME280;9776;50.798;6.430;2022-08-24T01:50:08;100340.56;;;21.64;56.79
19286;BME280;9776;50.798;6.430;2022-08-24T01:52:38;100342.44;;;21.64;56.74
19286;BME280;9776;50.798;6.430;2022-08-24T01:55:06;100336.44;;;21.62;56.90
19286;BME280;9776;50.798;6.430;2022-08-24T01:57:32;100332.97;;;21.61;57.06
19286;BME280;9776;50.798;6.430;2022-08-24T02:00:00;100337.50;;;21.61;56.70
19286;BME280;9776;50.798;6.430;2022-08-24T02:02:29;100342.44;;;21.64;56.88
19286;BME280;9776;50.798;6.430;2022-08-24T02:04:57;100343.09;;;21.59;56.80
19286;BME280;9776;50.798;6.430;2022-08-24T02:07:23;100346.22;;;21.56;56.81
19286;BME280;9776;50.798;6.430;2022-08-24T02:09:51;100349.34;;;21.53;56.86
19286;BME280;9776;50.798;6.430;2022-08-24T02:12:19;100346.28;;;21.49;56.79
19286;BME280;9776;50.798;6.430;2022-08-24T02:14:46;100344.47;;;21.43;56.90
19286;BME280;9776;50.798;6.430;2022-08-24T02:17:15;100335.19;;;21.39;56.88
19286;BME280;9776;50.798;6.430;2022-08-24T02:19:42;100343.09;;;21.34;56.57
19286;BME280;9776;50.798;6.430;2022-08-24T02:22:09;100347.03;;;21.32;56.70
19286;BME280;9776;50.798;6.430;2022-08-24T02:24:36;100336.59;;;21.24;56.70
19286;BME280;9776;50.798;6.430;2022-08-24T02:27:03;100337.03;;;21.21;56.70
19286;BME280;9776;50.798;6.430;2022-08-24T02:29:30;100339.47;;;21.22;56.59
19286;BME280;9776;50.798;6.430;2022-08-24T02:31:56;100342.59;;;21.19;56.87
19286;BME280;9776;50.798;6.430;2022-08-24T02:34:25;100338.88;;;21.20;56.47
19286;BME280;9776;50.798;6.430;2022-08-24T02:36:51;100337.66;;;21.16;56.64
19286;BME280;9776;50.798;6.430;2022-08-24T02:39:19;100342.81;;;21.18;56.82
19286;BME280;9776;50.798;6.430;2022-08-24T02:41:46;100335.63;;;21.12;56.86
19286;BME280;9776;50.798;6.430;2022-08-24T02:44:14;100339.97;;;21.06;57.19
19286;BME280;9776;50.798;6.430;2022-08-24T02:46:40;100336.31;;;21.01;57.43
19286;BME280;9776;50.798;6.430;2022-08-24T02:49:07;100341.28;;;20.97;57.73
19286;BME280;9776;50.798;6.430;2022-08-24T02:51:36;100339.19;;;20.99;57.58
19286;BME280;9776;50.798;6.430;2022-08-24T02:54:04;100344.13;;;21.02;57.56
19286;BME280;9776;50.798;6.430;2022-08-24T02:56:31;100343.31;;;21.02;57.78
19286;BME280;9776;50.798;6.430;2022-08-24T02:58:58;100339.59;;;21.03;57.75
19286;BME280;9776;50.798;6.430;2022-08-24T03:01:26;100337.94;;;21.02;57.91
19286;BME280;9776;50.798;6.430;2022-08-24T03:03:54;100334.66;;;21.00;57.88
19286;BME280;9776;50.798;6.430;2022-08-24T03:06:21;100337.94;;;21.02;58.22
19286;BME280;9776;50.798;6.430;2022-08-24T03:08:49;100342.47;;;21.01;57.93
19286;BME280;9776;50.798;6.430;2022-08-24T03:11:16;100339.63;;;20.96;58.14
19286;BME280;9776;50.798;6.430;2022-08-24T03:13:43;100341.53;;;20.89;58.56
19286;BME280;9776;50.798;6.430;2022-08-24T03:16:10;100345.03;;;20.89;58.59
19286;BME280;9776;50.798;6.430;2022-08-24T03:18:37;100334.75;;;20.86;58.47
19286;BME280;9776;50.798;6.430;2022-08-24T03:21:04;100337.03;;;20.83;58.71
19286;BME280;9776;50.798;6.430;2022-08-24T03:23:31;100340.16;;;20.80;58.40
19286;BME280;9776;50.798;6.430;2022-08-24T03:26:00;100336.03;;;20.77;58.47
19286;BME280;9776;50.798;6.430;2022-08-24T03:28:27;100342.66;;;20.75;58.43
19286;BME280;9776;50.798;6.430;2022-08-24T03:30:54;100339.16;;;20.74;58.46
19286;BME280;9776;50.798;6.430;2022-08-24T03:33:21;100342.03;;;20.73;58.49
19286;BME280;9776;50.798;6.430;2022-08-24T03:35:48;100335.66;;;20.67;58.57
19286;BME280;9776;50.798;6.430;2022-08-24T03:38:14;100347.06;;;20.63;58.79
19286;BME280;9776;50.798;6.430;2022-08-24T03:40:41;100350.75;;;20.62;58.86
19286;BME280;9776;50.798;6.430;2022-08-24T03:43:09;100348.53;;;20.52;58.78
19286;BME280;9776;50.798;6.430;2022-08-24T03:45:56;100349.88;;;20.30;59.52
19286;BME280;9776;50.798;6.430;2022-08-24T03:48:23;100337.94;;;20.19;59.87
19286;BME280;9776;50.798;6.430;2022-08-24T03:50:49;100338.78;;;20.13;60.21
19286;BME280;9776;50.798;6.430;2022-08-24T03:53:16;100336.09;;;20.13;59.93
19286;BME280;9776;50.798;6.430;2022-08-24T03:55:43;100336.44;;;20.23;59.98
19286;BME280;9776;50.798;6.430;2022-08-24T03:58:11;100334.63;;;20.30;59.59
19286;BME280;9776;50.798;6.430;2022-08-24T04:00:38;100339.13;;;20.36;59.79
19286;BME280;9776;50.798;6.430;2022-08-24T04:03:07;100335.78;;;20.41;59.55
19286;BME280;9776;50.798;6.430;2022-08-24T04:05:34;100338.88;;;20.45;59.54
19286;BME280;9776;50.798;6.430;2022-08-24T04:08:02;100342.38;;;20.45;59.41
19286;BME280;9776;50.798;6.430;2022-08-24T04:10:29;100337.44;;;20.42;59.40
19286;BME280;9776;50.798;6.430;2022-08-24T04:12:56;100340.72;;;20.44;59.22
19286;BME280;9776;50.798;6.430;2022-08-24T04:15:30;100347.56;;;20.40;59.23
19286;BME280;9776;50.798;6.430;2022-08-24T04:17:57;100341.38;;;20.40;59.51
19286;BME280;9776;50.798;6.430;2022-08-24T04:20:24;100341.41;;;20.33;59.55
19286;BME280;9776;50.798;6.430;2022-08-24T04:22:50;100333.78;;;20.23;59.72
19286;BME280;9776;50.798;6.430;2022-08-24T04:25:18;100343.28;;;20.19;59.78
19286;BME280;9776;50.798;6.430;2022-08-24T04:27:45;100343.06;;;20.21;60.09
19286;BME280;9776;50.798;6.430;2022-08-24T04:30:12;100343.47;;;20.24;59.70
19286;BME280;9776;50.798;6.430;2022-08-24T04:32:41;100343.28;;;20.26;59.69
19286;BME280;9776;50.798;6.430;2022-08-24T04:35:08;100349.84;;;20.23;59.95
19286;BME280;9776;50.798;6.430;2022-08-24T04:37:35;100352.56;;;20.17;60.30
19286;BME280;9776;50.798;6.430;2022-08-24T04:40:03;100343.31;;;20.06;60.32
19286;BME280;9776;50.798;6.430;2022-08-24T04:42:31;100340.03;;;20.04;60.64
19286;BME280;9776;50.798;6.430;2022-08-24T04:44:58;100348.25;;;20.09;60.46
19286;BME280;9776;50.798;6.430;2022-08-24T04:47:24;100338.97;;;20.12;60.31
19286;BME280;9776;50.798;6.430;2022-08-24T04:49:53;100347.41;;;20.15;60.33
19286;BME280;9776;50.798;6.430;2022-08-24T04:52:19;100345.13;;;20.19;60.28
19286;BME280;9776;50.798;6.430;2022-08-24T04:54:46;100348.66;;;20.19;59.99
19286;BME280;9776;50.798;6.430;2022-08-24T04:57:13;100351.31;;;20.19;60.28
19286;BME280;9776;50.798;6.430;2022-08-24T04:59:39;100354.00;;;20.19;60.06
19286;BME280;9776;50.798;6.430;2022-08-24T05:02:08;100350.09;;;20.15;60.21
19286;BME280;9776;50.798;6.430;2022-08-24T05:04:34;100362.06;;;20.13;60.50
19286;BME280;9776;50.798;6.430;2022-08-24T05:07:03;100359.19;;;20.14;60.49
19286;BME280;9776;50.798;6.430;2022-08-24T05:09:30;100369.91;;;20.14;60.52
19286;BME280;9776;50.798;6.430;2022-08-24T05:11:56;100374.00;;;20.17;60.51
19286;BME280;9776;50.798;6.430;2022-08-24T05:14:23;100370.69;;;20.15;60.63
19286;BME280;9776;50.798;6.430;2022-08-24T05:16:50;100367.59;;;20.18;60.47
19286;BME280;9776;50.798;6.430;2022-08-24T05:19:17;100373.19;;;20.16;60.55
19286;BME280;9776;50.798;6.430;2022-08-24T05:21:44;100369.47;;;20.17;60.53
19286;BME280;9776;50.798;6.430;2022-08-24T05:24:12;100368.03;;;20.15;60.46
19286;BME280;9776;50.798;6.430;2022-08-24T05:26:39;100372.34;;;20.22;60.35
19286;BME280;9776;50.798;6.430;2022-08-24T05:29:06;100373.81;;;20.25;60.30
19286;BME280;9776;50.798;6.430;2022-08-24T05:31:32;100374.00;;;20.30;60.26
19286;BME280;9776;50.798;6.430;2022-08-24T05:34:00;100372.94;;;20.37;60.24
19286;BME280;9776;50.798;6.430;2022-08-24T05:36:30;100383.63;;;20.44;60.27
19286;BME280;9776;50.798;6.430;2022-08-24T05:38:59;100379.69;;;20.47;59.82
19286;BME280;9776;50.798;6.430;2022-08-24T05:41:28;100379.94;;;20.45;60.24
19286;BME280;9776;50.798;6.430;2022-08-24T05:43:55;100383.63;;;20.44;60.29
19286;BME280;9776;50.798;6.430;2022-08-24T05:46:22;100379.09;;;20.45;60.15
19286;BME280;9776;50.798;6.430;2022-08-24T05:48:49;100382.00;;;20.43;60.62
19286;BME280;9776;50.798;6.430;2022-08-24T05:51:15;100381.53;;;20.53;60.32
19286;BME280;9776;50.798;6.430;2022-08-24T05:53:43;100386.22;;;20.64;60.20
19286;BME280;9776;50.798;6.430;2022-08-24T05:56:11;100380.00;;;20.76;60.19
19286;BME280;9776;50.798;6.430;2022-08-24T05:58:40;100388.19;;;20.88;60.15
19286;BME280;9776;50.798;6.430;2022-08-24T06:01:07;100392.03;;;20.99;60.08
19286;BME280;9776;50.798;6.430;2022-08-24T06:03:35;100388.69;;;21.10;59.64
19286;BME280;9776;50.798;6.430;2022-08-24T06:06:03;100392.13;;;21.23;59.63
19286;BME280;9776;50.798;6.430;2022-08-24T06:08:30;100393.44;;;21.39;59.50
19286;BME280;9776;50.798;6.430;2022-08-24T06:10:57;100397.63;;;21.60;59.30
19286;BME280;9776;50.798;6.430;2022-08-24T06:13:25;100402.38;;;21.89;59.01
19286;BME280;9776;50.798;6.430;2022-08-24T06:16:03;100402.03;;;22.40;57.69
19286;BME280;9776;50.798;6.430;2022-08-24T06:18:31;100409.09;;;22.89;56.55
19286;BME280;9776;50.798;6.430;2022-08-24T06:21:03;100402.81;;;23.25;55.70
19286;BME280;9776;50.798;6.430;2022-08-24T06:23:30;100409.59;;;23.68;54.55
19286;BME280;9776;50.798;6.430;2022-08-24T06:25:57;100404.84;;;24.17;53.56
19286;BME280;9776;50.798;6.430;2022-08-24T06:28:41;100402.38;;;24.67;52.40
19286;BME280;9776;50.798;6.430;2022-08-24T06:31:09;100410.00;;;25.10;51.09
19286;BME280;9776;50.798;6.430;2022-08-24T06:33:36;100413.53;;;25.55;50.33
19286;BME280;9776;50.798;6.430;2022-08-24T06:36:03;100416.22;;;25.88;49.45
19286;BME280;9776;50.798;6.430;2022-08-24T06:38:30;100417.34;;;26.26;48.53
19286;BME280;9776;50.798;6.430;2022-08-24T06:40:56;100417.59;;;26.68;47.74
19286;BME280;9776;50.798;6.430;2022-08-24T06:43:23;100416.66;;;27.00;46.87
19286;BME280;9776;50.798;6.430;2022-08-24T06:45:50;100414.41;;;27.19;46.38
19286;BME280;9776;50.798;6.430;2022-08-24T06:48:18;100417.81;;;27.36;45.78
19286;BME280;9776;50.798;6.430;2022-08-24T06:50:45;100419.53;;;27.42;45.66
19286;BME280;9776;50.798;6.430;2022-08-24T06:53:12;100422.06;;;27.54;45.29
19286;BME280;9776;50.798;6.430;2022-08-24T06:55:43;100417.59;;;27.70;44.80
19286;BME280;9776;50.798;6.430;2022-08-24T06:58:11;100412.94;;;28.02;44.45
19286;BME280;9776;50.798;6.430;2022-08-24T07:00:38;100419.78;;;28.51;43.15
19286;BME280;9776;50.798;6.430;2022-08-24T07:03:04;100418.06;;;29.12;41.58
19286;BME280;9776;50.798;6.430;2022-08-24T07:05:33;100421.97;;;29.62;40.66
19286;BME280;9776;50.798;6.430;2022-08-24T07:08:00;100424.13;;;30.00;39.85
19286;BME280;9776;50.798;6.430;2022-08-24T07:10:27;100423.00;;;30.26;39.51
19286;BME280;9776;50.798;6.430;2022-08-24T07:12:54;100426.50;;;30.42;39.12
19286;BME280;9776;50.798;6.430;2022-08-24T07:15:21;100427.25;;;30.68;38.53
19286;BME280;9776;50.798;6.430;2022-08-24T07:17:49;100426.78;;;31.05;37.96
19286;BME280;9776;50.798;6.430;2022-08-24T07:20:16;100428.94;;;31.52;37.07
19286;BME280;9776;50.798;6.430;2022-08-24T07:22:44;100438.13;;;31.94;36.41
19286;BME280;9776;50.798;6.430;2022-08-24T07:25:11;100432.84;;;32.32;35.50
19286;BME280;9776;50.798;6.430;2022-08-24T07:27:38;100438.13;;;32.71;34.90
19286;BME280;9776;50.798;6.430;2022-08-24T07:30:06;100434.78;;;32.97;34.55
19286;BME280;9776;50.798;6.430;2022-08-24T07:32:33;100437.56;;;33.16;34.33
19286;BME280;9776;50.798;6.430;2022-08-24T07:35:00;100434.72;;;33.58;33.64
19286;BME280;9776;50.798;6.430;2022-08-24T07:37:26;100434.63;;;33.96;32.87
19286;BME280;9776;50.798;6.430;2022-08-24T07:39:54;100441.88;;;34.33;32.41
19286;BME280;9776;50.798;6.430;2022-08-24T07:42:21;100433.81;;;34.68;31.80
19286;BME280;9776;50.798;6.430;2022-08-24T07:44:49;100440.94;;;35.05;31.13
19286;BME280;9776;50.798;6.430;2022-08-24T07:47:16;100434.53;;;35.46;30.66
19286;BME280;9776;50.798;6.430;2022-08-24T07:49:43;100439.09;;;35.72;30.16
19286;BME280;9776;50.798;6.430;2022-08-24T07:52:09;100438.91;;;36.00;29.59
19286;BME280;9776;50.798;6.430;2022-08-24T07:54:36;100441.97;;;36.20;29.31
19286;BME280;9776;50.798;6.430;2022-08-24T07:57:05;100439.78;;;36.48;28.87
19286;BME280;9776;50.798;6.430;2022-08-24T07:59:32;100443.63;;;36.30;29.06
19286;BME280;9776;50.798;6.430;2022-08-24T08:01:59;100437.97;;;36.35;28.82
19286;BME280;9776;50.798;6.430;2022-08-24T08:04:26;100447.81;;;36.67;28.12
19286;BME280;9776;50.798;6.430;2022-08-24T08:06:53;100451.78;;;37.00;27.99
19286;BME280;9776;50.798;6.430;2022-08-24T08:09:20;100443.22;;;37.19;27.49
19286;BME280;9776;50.798;6.430;2022-08-24T08:11:47;100451.03;;;37.51;26.96
19286;BME280;9776;50.798;6.430;2022-08-24T08:14:15;100445.41;;;38.02;26.28
19286;BME280;9776;50.798;6.430;2022-08-24T08:16:42;100451.44;;;38.42;25.75
19286;BME280;9776;50.798;6.430;2022-08-24T08:19:09;100450.84;;;38.95;25.16
19286;BME280;9776;50.798;6.430;2022-08-24T08:21:40;100445.38;;;39.49;24.51
19286;BME280;9776;50.798;6.430;2022-08-24T08:24:25;100455.22;;;40.03;23.98
19286;BME280;9776;50.798;6.430;2022-08-24T08:26:51;100456.34;;;40.47;23.47
19286;BME280;9776;50.798;6.430;2022-08-24T08:29:20;100450.38;;;40.69;23.43
19286;BME280;9776;50.798;6.430;2022-08-24T08:31:49;100454.59;;;40.91;23.00
19286;BME280;9776;50.798;6.430;2022-08-24T08:34:16;100450.03;;;41.35;22.60
19286;BME280;9776;50.798;6.430;2022-08-24T08:36:44;100444.69;;;41.85;21.82
19286;BME280;9776;50.798;6.430;2022-08-24T08:39:13;100438.66;;;42.27;21.27
19286;BME280;9776;50.798;6.430;2022-08-24T08:42:11;100437.47;;;42.43;20.90
19286;BME280;9776;50.798;6.430;2022-08-24T08:44:50;100441.75;;;43.07;20.75
19286;BME280;9776;50.798;6.430;2022-08-24T08:47:31;100440.63;;;43.46;19.92
19286;BME280;9776;50.798;6.430;2022-08-24T08:50:13;100435.88;;;43.89;19.35
19286;BME280;9776;50.798;6.430;2022-08-24T08:55:47;100426.69;;;44.11;19.01
19286;BME280;9776;50.798;6.430;2022-08-24T08:58:28;100422.34;;;44.36;18.84
19286;BME280;9776;50.798;6.430;2022-08-24T09:01:08;100431.78;;;44.81;18.49
19286;BME280;9776;50.798;6.430;2022-08-24T09:03:56;100429.16;;;45.21;17.97
19286;BME280;9776;50.798;6.430;2022-08-24T09:06:53;100426.69;;;45.83;17.33
19286;BME280;9776;50.798;6.430;2022-08-24T09:09:49;100415.50;;;46.23;17.09
19286;BME280;9776;50.798;6.430;2022-08-24T09:12:28;100415.81;;;45.71;17.30
19286;BME280;9776;50.798;6.430;2022-08-24T09:15:12;100422.56;;;44.77;17.85
19286;BME280;9776;50.798;6.430;2022-08-24T09:17:59;100413.09;;;43.61;18.75
19286;BME280;9776;50.798;6.430;2022-08-24T09:20:45;100408.94;;;42.78;19.27
19286;BME280;9776;50.798;6.430;2022-08-24T09:23:24;100409.88;;;43.20;18.90
19286;BME280;9776;50.798;6.430;2022-08-24T09:26:02;100408.09;;;44.38;17.91
19286;BME280;9776;50.798;6.430;2022-08-24T09:28:41;100415.19;;;45.51;17.19
19286;BME280;9776;50.798;6.430;2022-08-24T09:31:25;100407.47;;;46.72;16.14
19286;BME280;9776;50.798;6.430;2022-08-24T09:34:06;100411.84;;;47.70;15.14
19286;BME280;9776;50.798;6.430;2022-08-24T09:36:45;100411.09;;;48.33;14.78
19286;BME280;9776;50.798;6.430;2022-08-24T09:39:31;100410.94;;;48.97;14.15
19286;BME280;9776;50.798;6.430;2022-08-24T09:46:02;100405.09;;;49.47;13.64
19286;BME280;9776;50.798;6.430;2022-08-24T09:49:04;100409.19;;;50.38;13.33
19286;BME280;9776;50.798;6.430;2022-08-24T09:51:58;100402.41;;;51.06;12.91
19286;BME280;9776;50.798;6.430;2022-08-24T09:57:47;100387.19;;;52.31;11.78
19286;BME280;9776;50.798;6.430;2022-08-24T10:00:23;100391.91;;;52.77;11.61
19286;BME280;9776;50.798;6.430;2022-08-24T10:03:02;100379.19;;;53.08;11.53
19286;BME280;9776;50.798;6.430;2022-08-24T10:05:46;100379.59;;;53.26;11.24
19286;BME280;9776;50.798;6.430;2022-08-24T10:08:25;100377.09;;;53.64;11.30
19286;BME280;9776;50.798;6.430;2022-08-24T10:11:01;100381.31;;;53.88;10.75
19286;BME280;9776;50.798;6.430;2022-08-24T10:13:39;100366.78;;;54.18;10.58
19286;BME280;9776;50.798;6.430;2022-08-24T10:16:19;100376.25;;;54.57;10.28
19286;BME280;9776;50.798;6.430;2022-08-24T10:18:56;100368.31;;;54.93;10.15
19286;BME280;9776;50.798;6.430;2022-08-24T10:21:39;100359.94;;;55.02;10.02
19286;BME280;9776;50.798;6.430;2022-08-24T10:24:34;100370.22;;;54.96;10.00
19286;BME280;9776;50.798;6.430;2022-08-24T10:27:15;100355.44;;;55.30;9.80
19286;BME280;9776;50.798;6.430;2022-08-24T10:30:02;100352.94;;;55.57;9.50
19286;BME280;9776;50.798;6.430;2022-08-24T10:32:50;100351.00;;;55.67;9.45
19286;BME280;9776;50.798;6.430;2022-08-24T10:35:23;100342.81;;;55.69;9.25
19286;BME280;9776;50.798;6.430;2022-08-24T10:38:24;100344.91;;;55.43;9.51
19286;BME280;9776;50.798;6.430;2022-08-24T10:41:42;100335.34;;;55.62;9.51
19286;BME280;9776;50.798;6.430;2022-08-24T10:44:42;100331.75;;;55.62;9.41
19286;BME280;9776;50.798;6.430;2022-08-24T10:47:12;100326.75;;;55.66;9.20
19286;BME280;9776;50.798;6.430;2022-08-24T10:50:14;100334.84;;;55.29;9.42
19286;BME280;9776;50.798;6.430;2022-08-24T10:53:19;100341.69;;;54.78;9.61
19286;BME280;9776;50.798;6.430;2022-08-24T10:55:58;100344.78;;;54.96;9.68
19286;BME280;9776;50.798;6.430;2022-08-24T10:58:50;100324.81;;;55.63;8.98
19286;BME280;9776;50.798;6.430;2022-08-24T11:01:24;100325.69;;;56.19;8.86
19286;BME280;9776;50.798;6.430;2022-08-24T11:03:56;100328.19;;;56.17;8.49
19286;BME280;9776;50.798;6.430;2022-08-24T11:06:25;100321.53;;;56.55;8.27
19286;BME280;9776;50.798;6.430;2022-08-24T11:08:56;100315.34;;;57.00;8.19
19286;BME280;9776;50.798;6.430;2022-08-24T11:11:28;100314.66;;;57.26;8.37
19286;BME280;9776;50.798;6.430;2022-08-24T11:13:57;100307.78;;;56.75;8.60
19286;BME280;9776;50.798;6.430;2022-08-24T11:16:29;100312.63;;;56.43;8.44
19286;BME280;9776;50.798;6.430;2022-08-24T11:18:58;100310.53;;;56.57;8.58
19286;BME280;9776;50.798;6.430;2022-08-24T11:21:50;100296.78;;;55.05;9.22
19286;BME280;9776;50.798;6.430;2022-08-24T11:24:30;100299.72;;;54.76;9.04
19286;BME280;9776;50.798;6.430;2022-08-24T11:27:07;100303.22;;;54.68;9.26
19286;BME280;9776;50.798;6.430;2022-08-24T11:29:59;100288.28;;;55.43;9.03
19286;BME280;9776;50.798;6.430;2022-08-24T11:32:30;100284.94;;;56.48;8.28
19286;BME280;9776;50.798;6.430;2022-08-24T11:35:02;100294.25;;;57.19;8.24
19286;BME280;9776;50.798;6.430;2022-08-24T11:37:31;100295.97;;;57.74;8.02
19286;BME280;9776;50.798;6.430;2022-08-24T11:39:59;100283.06;;;57.24;8.06
19286;BME280;9776;50.798;6.430;2022-08-24T11:42:37;100279.63;;;57.20;7.55
19286;BME280;9776;50.798;6.430;2022-08-24T11:45:12;100272.78;;;57.67;7.49
19286;BME280;9776;50.798;6.430;2022-08-24T11:47:50;100283.03;;;58.10;7.50
19286;BME280;9776;50.798;6.430;2022-08-24T11:50:24;100271.34;;;58.17;7.65
19286;BME280;9776;50.798;6.430;2022-08-24T11:53:07;100268.50;;;57.71;7.52
19286;BME280;9776;50.798;6.430;2022-08-24T11:55:41;100267.28;;;57.14;7.93
19286;BME280;9776;50.798;6.430;2022-08-24T11:58:18;100267.94;;;57.27;7.36
19286;BME280;9776;50.798;6.430;2022-08-24T12:00:54;100270.25;;;57.78;7.12
19286;BME280;9776;50.798;6.430;2022-08-24T12:03:40;100260.78;;;57.99;7.56
19286;BME280;9776;50.798;6.430;2022-08-24T12:06:15;100268.34;;;58.11;7.26
19286;BME280;9776;50.798;6.430;2022-08-24T12:08:49;100260.31;;;58.00;7.39
19286;BME280;9776;50.798;6.430;2022-08-24T12:11:27;100265.19;;;58.00;7.41
19286;BME280;9776;50.798;6.430;2022-08-24T12:14:01;100255.72;;;57.94;7.21
19286;BME280;9776;50.798;6.430;2022-08-24T12:16:36;100252.25;;;57.81;7.39
19286;BME280;9776;50.798;6.430;2022-08-24T12:19:12;100244.53;;;57.63;7.23
19286;BME280;9776;50.798;6.430;2022-08-24T12:21:42;100246.09;;;57.46;7.75
19286;BME280;9776;50.798;6.430;2022-08-24T12:24:13;100248.06;;;57.27;7.39
19286;BME280;9776;50.798;6.430;2022-08-24T12:26:44;100245.69;;;57.08;7.83
19286;BME280;9776;50.798;6.430;2022-08-24T12:29:18;100257.41;;;56.48;8.03
19286;BME280;9776;50.798;6.430;2022-08-24T12:31:49;100244.00;;;56.05;8.12
19286;BME280;9776;50.798;6.430;2022-08-24T12:34:21;100248.97;;;56.14;7.88
19286;BME280;9776;50.798;6.430;2022-08-24T12:36:58;100238.50;;;55.67;8.15
19286;BME280;9776;50.798;6.430;2022-08-24T12:39:30;100241.16;;;55.62;8.32
19286;BME280;9776;50.798;6.430;2022-08-24T12:42:06;100245.00;;;55.43;8.42
19286;BME280;9776;50.798;6.430;2022-08-24T12:44:41;100239.84;;;55.28;8.43
19286;BME280;9776;50.798;6.430;2022-08-24T12:47:08;100237.63;;;54.98;8.35
19286;BME280;9776;50.798;6.430;2022-08-24T12:49:41;100239.25;;;54.04;9.19
19286;BME280;9776;50.798;6.430;2022-08-24T12:52:24;100239.56;;;51.62;10.28
19286;BME280;9776;50.798;6.430;2022-08-24T12:55:10;100241.44;;;48.32;11.97
19286;BME280;9776;50.798;6.430;2022-08-24T12:57:49;100233.44;;;45.86;13.54
19286;BME280;9776;50.798;6.430;2022-08-24T13:00:21;100236.00;;;44.80;14.65
19286;BME280;9776;50.798;6.430;2022-08-24T13:02:55;100233.66;;;43.93;15.18
19286;BME280;9776;50.798;6.430;2022-08-24T13:05:23;100229.47;;;43.54;15.42
19286;BME280;9776;50.798;6.430;2022-08-24T13:07:52;100230.75;;;43.14;15.88
19286;BME280;9776;50.798;6.430;2022-08-24T13:10:37;100233.44;;;42.69;15.70
19286;BME280;9776;50.798;6.430;2022-08-24T13:13:11;100238.88;;;41.92;16.49
19286;BME280;9776;50.798;6.430;2022-08-24T13:16:01;100227.44;;;41.15;16.75
19286;BME280;9776;50.798;6.430;2022-08-24T13:21:40;100226.31;;;40.61;17.42
19286;BME280;9776;50.798;6.430;2022-08-24T13:31:13;100231.53;;;39.05;18.52
19286;BME280;9776;50.798;6.430;2022-08-24T13:33:43;100235.41;;;38.92;18.71
19286;BME280;9776;50.798;6.430;2022-08-24T13:36:43;100232.34;;;38.52;18.91
19286;BME280;9776;50.798;6.430;2022-08-24T13:39:36;100230.66;;;38.39;19.40
19286;BME280;9776;50.798;6.430;2022-08-24T13:42:12;100231.34;;;38.36;19.83
19286;BME280;9776;50.798;6.430;2022-08-24T13:45:00;100231.78;;;38.17;19.81
19286;BME280;9776;50.798;6.430;2022-08-24T13:47:43;100227.53;;;38.20;19.66